Storm Events Database

Event Details

Event Hail
Magnitude 1.50 in.
State TEXAS
County/Area HARTLEY
WFO AMA
Report Source Trained Spotter
NCDC Data Source CSV
Begin Date 2010-06-12 21:25:00.0 CST-6
Begin Location 8SE ROMERO
Begin Lat/Lon 35.64/-102.82
End Date 2010-06-12 21:27:00.0 CST-6
Deaths Direct/Indirect 0/0 (fatality details below, when available...)
Injuries Direct/Indirect 0/0
Property Damage 0.00K
Crop Damage 0.00K
Episode Narrative Severe thunderstorms produced large hail...damaging winds...and an isolated tornado during the afternoon and evening hours. There were a couple of injuries reported due to the large hail.
Event Narrative


     ‚Äč



All events for this episode:

Location County/Zone St. Date Time T.Z. Type Mag Dth Inj PrD CrD
Totals: 0 1 112.00K 0.00K
DUMAS MUNI ARPT MOORE CO. TX 06/12/2010 13:38 CST-6 Hail 1.00 in. 0 0 0.00K 0.00K
DUMAS MUNI ARPT MOORE CO. TX 06/12/2010 13:44 CST-6 Hail 1.00 in. 0 0 0.00K 0.00K
CACTUS MOORE CO. TX 06/12/2010 14:04 CST-6 Hail 1.00 in. 0 0 0.00K 0.00K
LAUTZ SHERMAN CO. TX 06/12/2010 14:09 CST-6 Hail 1.00 in. 0 0 0.00K 0.00K
SUNRAY MOORE CO. TX 06/12/2010 14:14 CST-6 Tornado EF0 0 0 0.00K 0.00K
DUMAS MOORE CO. TX 06/12/2010 14:15 CST-6 Hail 1.00 in. 0 0 0.00K 0.00K
DUMAS MOORE CO. TX 06/12/2010 14:17 CST-6 Hail 2.00 in. 0 0 0.00K 0.00K
SUNRAY MOORE CO. TX 06/12/2010 14:23 CST-6 Hail 4.00 in. 0 0 0.00K 0.00K
SUNRAY MOORE CO. TX 06/12/2010 14:25 CST-6 Hail 3.25 in. 0 0 0.00K 0.00K
SUNRAY MOORE CO. TX 06/12/2010 14:27 CST-6 Hail 5.50 in. 0 0 2.00K 0.00K
SUNRAY MOORE CO. TX 06/12/2010 14:28 CST-6 Hail 2.75 in. 0 0 0.00K 0.00K
SUNRAY MOORE CO. TX 06/12/2010 14:32 CST-6 Hail 6.00 in. 0 0 0.00K 0.00K
SUNRAY MOORE CO. TX 06/12/2010 14:32 CST-6 Hail 2.50 in. 0 0 0.00K 0.00K
SUNRAY MOORE CO. TX 06/12/2010 14:40 CST-6 Hail 4.00 in. 0 0 0.00K 0.00K
GRUVER HANSFORD CO. TX 06/12/2010 15:41 CST-6 Hail 1.00 in. 0 0 0.00K 0.00K
SPEARMAN HANSFORD CO. TX 06/12/2010 17:30 CST-6 Hail 1.00 in. 0 0 0.00K 0.00K
HARTLEY HARTLEY CO. TX 06/12/2010 17:33 CST-6 Hail 1.00 in. 0 0 0.00K 0.00K
SPEARMAN HANSFORD CO. TX 06/12/2010 17:38 CST-6 Thunderstorm Wind 52 kts. EG 0 0 0.00K 0.00K
SPEARMAN HANSFORD CO. TX 06/12/2010 17:38 CST-6 Hail 0.75 in. 0 0 0.00K 0.00K
HARTLEY HARTLEY CO. TX 06/12/2010 17:39 CST-6 Hail 1.25 in. 0 0 0.00K 0.00K
DUMAS MUNI ARPT MOORE CO. TX 06/12/2010 17:45 CST-6 Hail 1.25 in. 0 0 0.00K 0.00K
DUMAS MUNI ARPT MOORE CO. TX 06/12/2010 17:55 CST-6 Hail 1.25 in. 0 0 0.00K 0.00K
DUMAS MUNI ARPT MOORE CO. TX 06/12/2010 18:03 CST-6 Hail 1.25 in. 0 0 0.00K 0.00K
DUMAS MOORE CO. TX 06/12/2010 18:17 CST-6 Thunderstorm Wind 52 kts. EG 0 0 0.00K 0.00K
DUMAS MOORE CO. TX 06/12/2010 18:18 CST-6 Thunderstorm Wind 61 kts. EG 0 0 100.00K 0.00K
DUMAS MOORE CO. TX 06/12/2010 18:20 CST-6 Hail 1.75 in. 0 0 0.00K 0.00K
DUMAS MOORE CO. TX 06/12/2010 18:20 CST-6 Thunderstorm Wind 56 kts. EG 0 0 0.00K 0.00K
DUMAS MOORE CO. TX 06/12/2010 18:21 CST-6 Hail 1.00 in. 0 0 0.00K 0.00K
DUMAS MOORE CO. TX 06/12/2010 18:26 CST-6 Thunderstorm Wind 57 kts. MG 0 0 0.00K 0.00K
DUMAS MOORE CO. TX 06/12/2010 18:26 CST-6 Hail 1.00 in. 0 0 0.00K 0.00K
PERRYTON OCHILTREE CO. TX 06/12/2010 18:29 CST-6 Thunderstorm Wind 61 kts. EG 0 0 0.00K 0.00K
DUMAS MOORE CO. TX 06/12/2010 18:30 CST-6 Hail 1.75 in. 0 1 0.00K 0.00K
PERRYTON OCHILTREE CO. TX 06/12/2010 18:30 CST-6 Thunderstorm Wind 52 kts. MG 0 0 0.00K 0.00K
PERRYTON OCHILTREE CO. TX 06/12/2010 19:06 CST-6 Hail 1.00 in. 0 0 0.00K 0.00K
PRINGLE HUTCHINSON CO. TX 06/12/2010 19:50 CST-6 Hail 2.50 in. 0 0 0.00K 0.00K
MALLETT SHERMAN CO. TX 06/12/2010 20:00 CST-6 Hail 1.00 in. 0 0 0.00K 0.00K
SPEARMAN HANSFORD CO. TX 06/12/2010 20:07 CST-6 Hail 2.50 in. 0 0 0.00K 0.00K
SPEARMAN HANSFORD CO. TX 06/12/2010 20:10 CST-6 Hail 1.00 in. 0 0 0.00K 0.00K
BOOKER LIPSCOMB CO. TX 06/12/2010 20:27 CST-6 Hail 0.88 in. 0 0 0.00K 0.00K
DARROUZETT LIPSCOMB CO. TX 06/12/2010 20:40 CST-6 Hail 1.00 in. 0 0 0.00K 0.00K
DARROUZETT LIPSCOMB CO. TX 06/12/2010 20:40 CST-6 Thunderstorm Wind 56 kts. EG 0 0 0.00K 0.00K
MORSE HANSFORD CO. TX 06/12/2010 20:52 CST-6 Hail 1.00 in. 0 0 0.00K 0.00K
ROMERO HARTLEY CO. TX 06/12/2010 21:25 CST-6 Hail 1.50 in. 0 0 0.00K 0.00K
CACTUS MOORE CO. TX 06/12/2010 21:30 CST-6 Thunderstorm Wind 61 kts. EG 0 0 10.00K 0.00K
SPEARMAN HANSFORD CO. TX 06/12/2010 21:30 CST-6 Hail 1.00 in. 0 0 0.00K 0.00K
MORSE HANSFORD CO. TX 06/12/2010 21:55 CST-6 Hail 1.00 in. 0 0 0.00K 0.00K
SPEARMAN HANSFORD CO. TX 06/12/2010 22:00 CST-6 Hail 1.75 in. 0 0 0.00K 0.00K
PERRYTON MUNI ARPT OCHILTREE CO. TX 06/13/2010 00:01 CST-6 Thunderstorm Wind 51 kts. MG 0 0 0.00K 0.00K
SPEARMAN HANSFORD CO. TX 06/13/2010 01:54 CST-6 Flash Flood 0 0 0.00K 0.00K
GRUVER HANSFORD CO. TX 06/13/2010 03:44 CST-6 Flood 0 0 0.00K 0.00K
Totals: 0 1 112.00K 0.00K